Time;durP1;ratioP1;P1;durP2;ratioP2;P2;SDS_P1;SDS_P2;PMS_P1;PMS_P2;Temp;Humidity;BMP_temperature;BMP_pressure;BME280_temperature;BME280_humidity;BME280_pressure;Samples;Min_cycle;Max_cycle;Signal;HPM_P1;HPM_P2
2023/06/10 00:01:55;;;;;;;5.00;4.60;;;22.70;52.40;;;;;;5037596;28;20212;-81
2023/06/10 00:04:23;;;;;;;5.07;4.68;;;22.70;52.40;;;;;;5036075;28;20216;-80
2023/06/10 00:06:51;;;;;;;5.45;4.95;;;22.70;52.40;;;;;;5035943;28;20246;-80
2023/06/10 00:09:18;;;;;;;5.60;5.10;;;22.70;52.40;;;;;;5036136;28;20202;-81
2023/06/10 00:11:45;;;;;;;4.95;4.50;;;22.70;52.40;;;;;;5038553;28;20216;-80
2023/06/10 00:14:12;;;;;;;5.80;5.30;;;22.70;52.40;;;;;;5055868;28;20206;-80
2023/06/10 00:16:39;;;;;;;5.63;5.22;;;22.60;52.30;;;;;;5057777;28;20200;-80
2023/06/10 00:19:08;;;;;;;6.43;4.55;;;22.60;52.30;;;;;;5057755;28;20198;-80
2023/06/10 00:21:39;;;;;;;5.10;4.70;;;22.60;52.40;;;;;;5051047;28;20252;-80
2023/06/10 00:24:09;;;;;;;4.45;4.15;;;22.60;52.50;;;;;;5050057;28;20231;-81
2023/06/10 00:26:36;;;;;;;5.20;4.80;;;22.60;52.50;;;;;;5042843;28;20250;-81
2023/06/10 00:29:03;;;;;;;5.85;5.28;;;22.50;52.40;;;;;;5019080;28;20282;-81
2023/06/10 00:31:30;;;;;;;5.78;5.30;;;22.60;52.50;;;;;;5034695;28;20220;-81
2023/06/10 00:33:58;;;;;;;5.53;5.03;;;22.60;52.50;;;;;;5041610;28;20601;-81
2023/06/10 00:36:25;;;;;;;5.32;4.93;;;22.60;52.50;;;;;;5042437;28;20196;-81
2023/06/10 00:38:54;;;;;;;6.05;5.45;;;22.50;52.40;;;;;;5045531;28;20287;-81
2023/06/10 00:41:21;;;;;;;6.07;5.55;;;22.50;52.50;;;;;;5052511;28;20246;-80
2023/06/10 00:43:48;;;;;;;5.45;5.05;;;22.50;52.50;;;;;;5054891;28;20223;-80
2023/06/10 00:46:15;;;;;;;5.30;4.80;;;22.50;52.50;;;;;;5045140;28;20271;-80
2023/06/10 00:48:43;;;;;;;6.20;5.70;;;22.50;52.50;;;;;;5045708;28;20235;-80
2023/06/10 00:51:10;;;;;;;5.90;5.40;;;22.50;52.60;;;;;;5045576;28;20226;-81
2023/06/10 00:53:38;;;;;;;5.25;4.85;;;22.50;52.50;;;;;;5045694;28;20196;-81
2023/06/10 00:56:07;;;;;;;5.70;5.20;;;22.50;52.60;;;;;;5044736;28;20287;-81
2023/06/10 00:58:36;;;;;;;5.63;5.13;;;22.50;52.60;;;;;;5044810;28;20723;-81
2023/06/10 01:01:03;;;;;;;5.40;4.90;;;22.40;52.40;;;;;;5044320;28;20215;-81
2023/06/10 01:03:32;;;;;;;5.45;5.05;;;22.40;52.50;;;;;;5043974;28;20204;-81
2023/06/10 01:06:01;;;;;;;5.45;4.95;;;22.40;52.60;;;;;;5043007;28;20666;-81
2023/06/10 01:08:35;;;;;;;5.68;5.20;;;22.40;52.60;;;;;;5044751;28;20584;-81
2023/06/10 01:11:02;;;;;;;6.10;5.60;;;22.40;52.60;;;;;;5044285;28;20220;-81
2023/06/10 01:13:32;;;;;;;5.65;5.22;;;22.40;52.60;;;;;;5041319;28;20200;-81
2023/06/10 01:15:59;;;;;;;5.70;5.30;;;22.30;52.60;;;;;;5033943;28;20203;-81
2023/06/10 01:18:31;;;;;;;6.00;5.50;;;22.40;52.80;;;;;;5037218;28;20208;-81
2023/06/10 01:21:00;;;;;;;5.30;4.90;;;22.40;52.70;;;;;;5042217;28;20277;-81
2023/06/10 01:23:29;;;;;;;5.70;5.20;;;22.30;52.60;;;;;;5043492;28;20252;-81
2023/06/10 01:26:00;;;;;;;5.40;5.00;;;22.30;52.60;;;;;;5043564;28;20200;-81
2023/06/10 01:28:30;;;;;;;5.40;4.95;;;22.30;52.70;;;;;;5042970;28;20188;-81
2023/06/10 01:31:02;;;;;;;5.47;5.03;;;22.30;52.80;;;;;;5043223;28;20226;-81
2023/06/10 01:33:31;;;;;;;5.57;5.18;;;22.30;52.60;;;;;;5043251;28;20539;-81
2023/06/10 01:36:00;;;;;;;5.95;5.45;;;22.30;52.70;;;;;;5043681;28;20200;-81
2023/06/10 01:38:31;;;;;;;5.40;5.00;;;22.30;52.70;;;;;;5045092;28;20192;-81
2023/06/10 01:40:58;;;;;;;5.82;5.32;;;22.20;52.80;;;;;;5045260;28;20227;-81
2023/06/10 01:43:26;;;;;;;5.97;5.47;;;22.20;52.80;;;;;;5031607;28;20299;-81
2023/06/10 01:45:53;;;;;;;5.55;5.15;;;22.20;52.80;;;;;;5047794;28;20211;-79
2023/06/10 01:48:20;;;;;;;6.32;5.82;;;22.20;52.80;;;;;;5046385;28;20283;-80
2023/06/10 01:50:48;;;;;;;6.05;5.18;;;22.20;52.80;;;;;;5048319;28;20212;-81
2023/06/10 01:53:15;;;;;;;5.47;5.07;;;22.20;52.80;;;;;;5050397;28;20223;-81
2023/06/10 01:55:44;;;;;;;5.15;4.75;;;22.20;52.80;;;;;;5046476;28;20267;-81
2023/06/10 01:58:11;;;;;;;5.25;4.85;;;22.20;52.90;;;;;;5038355;28;20207;-81
2023/06/10 02:00:38;;;;;;;5.32;4.93;;;22.20;53.00;;;;;;5037832;28;20220;-81
2023/06/10 02:03:05;;;;;;;5.40;5.00;;;22.10;52.80;;;;;;5037419;28;20220;-81
2023/06/10 02:05:33;;;;;;;5.55;5.05;;;22.10;52.80;;;;;;5038427;28;20202;-81
2023/06/10 02:08:00;;;;;;;5.35;4.88;;;22.10;52.80;;;;;;5038416;28;20219;-81
2023/06/10 02:10:27;;;;;;;5.78;5.28;;;22.10;52.90;;;;;;5037616;28;20212;-81
2023/06/10 02:12:56;;;;;;;5.78;5.32;;;22.10;52.90;;;;;;5036907;28;20196;-81
2023/06/10 02:15:23;;;;;;;5.75;5.25;;;22.10;53.00;;;;;;5036851;28;20204;-81
2023/06/10 02:17:50;;;;;;;5.20;4.80;;;22.10;53.00;;;;;;5036806;28;20200;-81
2023/06/10 02:20:17;;;;;;;5.43;5.03;;;22.10;52.90;;;;;;5036971;28;20753;-81
2023/06/10 02:22:44;;;;;;;5.30;4.90;;;22.10;53.10;;;;;;5036992;28;20616;-81
2023/06/10 02:25:11;;;;;;;5.05;4.65;;;22.10;53.00;;;;;;5036730;28;20682;-81
2023/06/10 02:27:39;;;;;;;5.07;4.68;;;22.00;53.00;;;;;;5036592;28;20207;-81
2023/06/10 02:30:10;;;;;;;5.22;4.82;;;22.00;53.00;;;;;;5020719;28;20204;-81
2023/06/10 02:32:37;;;;;;;5.43;5.03;;;22.00;53.00;;;;;;5036541;28;20721;-81
2023/06/10 02:35:05;;;;;;;5.50;5.10;;;22.00;53.00;;;;;;5036481;28;20196;-81
2023/06/10 02:37:33;;;;;;;5.55;5.07;;;22.00;53.10;;;;;;5036425;28;20203;-81
2023/06/10 02:40:01;;;;;;;5.32;4.85;;;22.00;53.00;;;;;;5037408;28;20262;-81
2023/06/10 02:42:28;;;;;;;5.05;4.65;;;22.00;53.00;;;;;;5020508;28;20224;-81
2023/06/10 02:44:55;;;;;;;5.40;4.90;;;21.90;53.00;;;;;;5037026;28;20228;-81
2023/06/10 02:47:34;;;;;;;4.85;4.45;;;22.00;53.00;;;;;;5039670;28;20191;-81
2023/06/10 02:50:03;;;;;;;5.03;4.63;;;22.00;53.10;;;;;;5038101;28;20647;-81
2023/06/10 02:52:32;;;;;;;5.30;4.85;;;22.00;53.10;;;;;;5037506;28;20303;-81
2023/06/10 02:55:00;;;;;;;5.25;4.75;;;21.90;53.10;;;;;;5037146;28;20196;-81
2023/06/10 02:57:28;;;;;;;5.20;4.80;;;21.90;53.00;;;;;;5021354;28;20196;-81
2023/06/10 02:59:55;;;;;;;5.50;5.10;;;21.90;53.50;;;;;;5037261;28;20203;-81
2023/06/10 03:02:28;;;;;;;5.32;4.88;;;21.90;53.20;;;;;;5036962;28;20216;-81
2023/06/10 03:04:57;;;;;;;5.53;5.00;;;21.90;53.10;;;;;;5036845;28;20633;-81
2023/06/10 03:07:25;;;;;;;5.22;4.82;;;21.90;53.10;;;;;;5035969;28;20199;-81
2023/06/10 03:09:54;;;;;;;5.10;4.60;;;21.90;52.90;;;;;;5036583;28;20203;-81
2023/06/10 03:12:21;;;;;;;5.15;4.75;;;21.80;53.00;;;;;;5036606;28;20216;-81
2023/06/10 03:14:49;;;;;;;5.53;5.03;;;21.80;53.10;;;;;;5036199;28;20238;-81
2023/06/10 03:17:17;;;;;;;4.80;4.45;;;21.80;52.80;;;;;;5036579;28;20658;-81
2023/06/10 03:19:46;;;;;;;5.13;4.72;;;21.90;53.00;;;;;;5020282;28;20636;-81
2023/06/10 03:22:15;;;;;;;5.20;4.70;;;21.90;52.90;;;;;;5036438;28;20220;-81
2023/06/10 03:24:51;;;;;;;5.10;4.70;;;21.90;52.80;;;;;;5036144;28;20208;-81
2023/06/10 03:27:18;;;;;;;5.20;4.80;;;21.90;52.70;;;;;;5036213;28;20658;-81
2023/06/10 03:29:48;;;;;;;5.00;4.60;;;22.00;52.60;;;;;;5036987;28;20188;-81
2023/06/10 03:32:16;;;;;;;5.40;4.75;;;22.00;52.50;;;;;;5036258;28;20312;-81
2023/06/10 03:34:45;;;;;;;4.90;4.50;;;22.00;52.40;;;;;;5035613;28;20192;-81
2023/06/10 03:37:15;;;;;;;5.07;4.68;;;22.10;52.30;;;;;;5035677;28;20303;-81
2023/06/10 03:39:45;;;;;;;5.10;4.70;;;22.10;52.30;;;;;;5036079;28;20691;-81
2023/06/10 03:42:11;;;;;;;4.97;4.57;;;22.10;52.10;;;;;;5035500;28;20223;-81
2023/06/10 03:44:39;;;;;;;5.30;4.90;;;22.10;52.10;;;;;;5034931;28;20246;-81
2023/06/10 03:47:07;;;;;;;5.18;4.78;;;22.10;51.90;;;;;;5035198;28;20219;-81
2023/06/10 03:49:37;;;;;;;5.00;4.60;;;22.10;51.90;;;;;;5035841;28;20219;-81
2023/06/10 03:52:05;;;;;;;4.70;4.38;;;22.20;52.00;;;;;;5018386;28;20622;-81
2023/06/10 03:54:35;;;;;;;5.18;4.63;;;22.20;52.00;;;;;;5037889;28;20270;-81
2023/06/10 03:57:03;;;;;;;4.50;4.10;;;22.10;52.00;;;;;;5038528;28;20216;-81
2023/06/10 03:59:31;;;;;;;5.07;4.68;;;22.20;51.90;;;;;;5036754;28;20196;-80
2023/06/10 04:01:58;;;;;;;4.38;4.05;;;22.20;52.00;;;;;;5053837;28;20216;-80
2023/06/10 04:04:25;;;;;;;5.07;4.57;;;22.20;52.00;;;;;;5053891;28;20235;-80
2023/06/10 04:06:52;;;;;;;4.60;4.20;;;22.20;52.00;;;;;;5048365;28;20192;-80
2023/06/10 04:09:19;;;;;;;5.00;4.60;;;22.20;52.00;;;;;;5030771;28;20207;-80
2023/06/10 04:11:48;;;;;;;4.68;4.28;;;22.20;52.00;;;;;;5031241;28;20220;-80
2023/06/10 04:14:15;;;;;;;4.70;4.40;;;22.20;52.00;;;;;;5048380;28;20227;-80
2023/06/10 04:16:43;;;;;;;4.70;4.40;;;22.20;52.00;;;;;;5041817;28;20253;-80
2023/06/10 04:19:11;;;;;;;4.68;4.25;;;22.20;51.90;;;;;;5035455;28;20196;-80
2023/06/10 04:21:39;;;;;;;4.70;4.30;;;22.20;52.00;;;;;;5035028;28;20216;-80
2023/06/10 04:24:07;;;;;;;5.20;4.70;;;22.20;51.90;;;;;;5018554;28;20742;-81
2023/06/10 04:26:36;;;;;;;5.15;4.70;;;22.20;51.90;;;;;;5035890;28;20203;-80
2023/06/10 04:29:06;;;;;;;4.70;4.30;;;22.20;51.90;;;;;;5034227;28;20570;-82
2023/06/10 04:31:33;;;;;;;5.13;4.20;;;22.20;51.90;;;;;;5017808;28;20212;-82
2023/06/10 04:34:01;;;;;;;4.43;4.03;;;22.20;51.80;;;;;;5035056;28;20192;-82
2023/06/10 04:36:29;;;;;;;4.10;3.80;;;22.30;52.00;;;;;;5034491;28;20200;-82
2023/06/10 04:38:57;;;;;;;4.80;4.40;;;22.30;52.00;;;;;;5033896;28;20204;-82
2023/06/10 04:41:25;;;;;;;5.07;4.57;;;22.20;51.80;;;;;;5034331;28;20215;-82
2023/06/10 04:43:53;;;;;;;4.38;4.07;;;22.30;52.00;;;;;;5033887;28;20207;-81
2023/06/10 04:46:21;;;;;;;4.78;4.38;;;22.40;51.90;;;;;;5034479;28;20196;-82
2023/06/10 04:48:49;;;;;;;4.97;4.57;;;22.50;51.80;;;;;;5034205;28;20198;-82
2023/06/10 04:51:16;;;;;;;4.35;3.83;;;22.60;51.60;;;;;;5033955;28;20224;-82
2023/06/10 04:53:44;;;;;;;5.40;4.88;;;22.70;51.40;;;;;;5033962;28;20222;-81
2023/06/10 04:56:11;;;;;;;4.90;4.40;;;22.70;52.30;;;;;;5034136;28;20218;-82
2023/06/10 04:58:38;;;;;;;5.03;4.57;;;22.80;51.80;;;;;;5034763;28;20204;-82
2023/06/10 05:01:05;;;;;;;5.47;4.97;;;22.70;52.30;;;;;;5037770;28;20223;-83
2023/06/10 05:03:34;;;;;;;4.95;4.55;;;22.70;52.30;;;;;;5035461;28;20197;-82
2023/06/10 05:06:01;;;;;;;4.22;3.92;;;22.70;52.30;;;;;;5033653;28;20686;-82
2023/06/10 05:08:28;;;;;;;4.60;4.20;;;22.80;51.80;;;;;;5034100;28;20207;-82
2023/06/10 05:10:55;;;;;;;4.80;4.40;;;23.00;51.50;;;;;;5033662;28;20581;-83
2023/06/10 05:13:22;;;;;;;4.30;4.00;;;23.20;51.10;;;;;;5033823;28;20192;-82
2023/06/10 05:15:49;;;;;;;4.40;4.00;;;23.40;51.00;;;;;;5034974;28;20266;-83
2023/06/10 05:18:17;;;;;;;4.45;4.15;;;23.50;50.50;;;;;;5036188;28;20200;-83
2023/06/10 05:20:45;;;;;;;4.80;4.40;;;23.70;50.30;;;;;;5039463;28;20230;-83
2023/06/10 05:23:12;;;;;;;4.38;3.97;;;23.80;50.00;;;;;;5033715;28;20246;-83
2023/06/10 05:25:38;;;;;;;4.38;4.07;;;23.90;49.80;;;;;;5034250;28;20226;-83
2023/06/10 05:28:09;;;;;;;4.50;4.20;;;24.00;49.60;;;;;;5034199;28;20663;-84
2023/06/10 05:30:36;;;;;;;4.20;3.90;;;24.10;49.40;;;;;;5034001;28;20220;-84
2023/06/10 05:33:03;;;;;;;4.63;4.22;;;24.20;49.10;;;;;;5034626;28;20254;-84
2023/06/10 05:35:32;;;;;;;4.80;4.00;;;24.30;49.20;;;;;;5034614;28;20199;-84
2023/06/10 05:38:00;;;;;;;4.40;4.05;;;24.40;48.90;;;;;;5034739;28;20678;-84
2023/06/10 05:40:27;;;;;;;4.82;4.35;;;24.50;48.70;;;;;;5035126;28;20643;-84
2023/06/10 05:42:55;;;;;;;4.78;4.38;;;24.60;48.60;;;;;;5034511;28;20212;-83
2023/06/10 05:45:21;;;;;;;4.20;3.90;;;24.70;48.40;;;;;;5168204;22;20243;-68
2023/06/10 05:47:49;;;;;;;4.55;4.18;;;24.70;48.30;;;;;;5031908;28;20203;-69
2023/06/10 05:50:16;;;;;;;4.60;4.20;;;24.80;48.10;;;;;;5032086;28;20223;-68
2023/06/10 05:52:44;;;;;;;4.55;4.25;;;24.90;47.90;;;;;;5031987;28;20569;-68
2023/06/10 05:55:13;;;;;;;4.32;4.03;;;25.00;47.90;;;;;;5033329;28;20600;-69
2023/06/10 05:57:41;;;;;;;5.07;4.05;;;25.10;47.70;;;;;;5031979;28;20250;-68
2023/06/10 06:00:10;;;;;;;5.18;4.78;;;25.20;47.60;;;;;;5031798;28;20318;-68
2023/06/10 06:02:40;;;;;;;4.07;3.78;;;25.30;47.40;;;;;;5033455;28;20211;-68
2023/06/10 06:05:07;;;;;;;6.10;4.32;;;25.40;47.20;;;;;;5031924;28;20215;-68
2023/06/10 06:07:34;;;;;;;4.50;4.10;;;25.40;47.00;;;;;;5031849;28;20219;-68
2023/06/10 06:10:02;;;;;;;4.50;4.10;;;25.50;47.50;;;;;;5031982;28;20247;-68
2023/06/10 06:12:30;;;;;;;6.70;4.72;;;25.60;46.80;;;;;;5032968;28;20192;-68
2023/06/10 06:14:57;;;;;;;4.55;4.25;;;25.70;46.60;;;;;;5031787;28;20203;-68
2023/06/10 06:17:24;;;;;;;4.40;4.10;;;25.70;46.30;;;;;;5031831;28;20200;-68
2023/06/10 06:19:51;;;;;;;4.63;4.30;;;25.90;46.20;;;;;;5032940;28;20211;-68
2023/06/10 06:22:21;;;;;;;4.60;4.20;;;25.90;46.00;;;;;;5031657;28;20207;-69
2023/06/10 06:24:49;;;;;;;4.43;4.10;;;26.00;45.90;;;;;;5031728;28;20226;-68
2023/06/10 06:27:16;;;;;;;4.88;4.47;;;26.10;45.90;;;;;;5031808;28;20262;-68
2023/06/10 06:29:45;;;;;;;4.75;4.35;;;26.10;45.70;;;;;;5033323;28;20302;-68
2023/06/10 06:32:12;;;;;;;4.82;4.40;;;26.20;45.50;;;;;;5033094;28;20195;-68
2023/06/10 06:34:40;;;;;;;5.30;4.50;;;26.20;45.40;;;;;;5031540;28;20196;-68
2023/06/10 06:37:07;;;;;;;5.35;4.93;;;26.30;45.30;;;;;;5033718;28;20669;-68
2023/06/10 06:39:36;;;;;;;4.60;4.20;;;26.40;45.20;;;;;;5035454;28;20218;-68
2023/06/10 06:42:05;;;;;;;4.40;4.10;;;26.50;45.10;;;;;;5035426;28;20291;-68
2023/06/10 06:44:58;;;;;;;4.53;4.20;;;26.50;44.90;;;;;;5034969;28;20246;-68
2023/06/10 06:47:26;;;;;;;4.70;4.30;;;26.60;44.70;;;;;;5036823;28;20237;-68
2023/06/10 06:49:53;;;;;;;5.03;4.60;;;26.60;44.70;;;;;;5036149;28;20269;-68
2023/06/10 06:52:22;;;;;;;4.50;4.13;;;26.70;44.60;;;;;;5035017;28;20290;-68
2023/06/10 06:54:49;;;;;;;4.25;3.85;;;26.70;44.50;;;;;;5036604;28;20564;-68
2023/06/10 06:57:16;;;;;;;4.22;3.92;;;26.80;44.40;;;;;;5034894;28;20227;-68
2023/06/10 06:59:43;;;;;;;4.63;4.22;;;26.90;44.20;;;;;;5035969;28;20218;-69
2023/06/10 07:02:12;;;;;;;4.40;4.10;;;26.90;44.10;;;;;;5035964;28;20274;-69
2023/06/10 07:04:40;;;;;;;4.93;4.53;;;27.00;44.00;;;;;;5034671;28;20294;-68
2023/06/10 07:07:08;;;;;;;4.63;4.13;;;27.00;44.10;;;;;;5036042;28;20197;-68
2023/06/10 07:09:35;;;;;;;4.40;4.00;;;27.00;43.90;;;;;;5034783;28;20208;-68
2023/06/10 07:12:03;;;;;;;4.53;4.20;;;27.00;43.80;;;;;;5034670;28;20200;-69
2023/06/10 07:14:30;;;;;;;4.03;3.72;;;27.10;43.60;;;;;;5034701;28;20584;-68
2023/06/10 07:16:58;;;;;;;4.70;4.30;;;27.20;43.40;;;;;;5034520;28;20231;-68
2023/06/10 07:19:26;;;;;;;4.13;3.83;;;27.20;43.10;;;;;;5034781;28;20222;-68
2023/06/10 07:21:53;;;;;;;4.15;3.78;;;27.20;43.00;;;;;;5035745;28;20192;-69
2023/06/10 07:24:21;;;;;;;4.05;3.75;;;27.30;43.10;;;;;;5035644;28;20188;-69
2023/06/10 07:26:48;;;;;;;4.32;4.03;;;27.30;43.00;;;;;;5034367;28;20239;-69
2023/06/10 07:29:15;;;;;;;4.10;3.70;;;27.40;42.80;;;;;;5034297;28;20215;-69
2023/06/10 07:31:42;;;;;;;4.28;3.95;;;27.40;42.70;;;;;;5034247;28;20203;-69
2023/06/10 07:34:10;;;;;;;4.38;4.07;;;27.40;42.60;;;;;;5034363;28;20199;-69
2023/06/10 07:36:39;;;;;;;4.05;3.75;;;27.40;42.50;;;;;;5035745;28;20731;-69
2023/06/10 07:39:06;;;;;;;4.18;3.80;;;27.50;42.50;;;;;;5035448;28;20207;-69
2023/06/10 07:41:34;;;;;;;4.38;3.70;;;27.50;42.20;;;;;;5034351;28;20199;-69
2023/06/10 07:44:01;;;;;;;4.53;4.15;;;27.60;42.40;;;;;;5034895;28;20199;-69
2023/06/10 07:46:29;;;;;;;4.50;4.15;;;27.60;42.40;;;;;;5033876;28;20302;-69
2023/06/10 07:48:56;;;;;;;4.50;4.10;;;27.60;42.20;;;;;;5032820;28;20219;-70
2023/06/10 07:51:23;;;;;;;4.40;4.05;;;27.60;42.20;;;;;;5033987;28;20195;-69
2023/06/10 07:53:52;;;;;;;4.50;4.20;;;27.70;42.30;;;;;;5033978;28;20199;-70
2023/06/10 07:56:20;;;;;;;4.30;3.97;;;27.70;42.20;;;;;;5035132;28;20214;-69
2023/06/10 07:58:47;;;;;;;4.10;3.80;;;27.70;42.30;;;;;;5034845;28;20314;-70
2023/06/10 08:01:15;;;;;;;3.92;3.63;;;27.70;42.30;;;;;;5034797;28;20211;-70
2023/06/10 08:03:43;;;;;;;4.55;4.25;;;27.70;42.30;;;;;;5033724;28;20195;-70
2023/06/10 08:06:11;;;;;;;4.00;3.70;;;27.70;42.30;;;;;;5033470;28;20265;-70
2023/06/10 08:08:41;;;;;;;3.92;3.63;;;27.70;41.80;;;;;;5034879;28;20219;-70
2023/06/10 08:11:11;;;;;;;4.18;3.88;;;27.70;41.70;;;;;;5034844;28;20250;-69
2023/06/10 08:13:39;;;;;;;4.50;4.20;;;27.70;41.80;;;;;;5033549;28;20741;-69
2023/06/10 08:16:07;;;;;;;4.50;4.10;;;27.80;42.00;;;;;;5034809;28;20187;-69
2023/06/10 08:18:34;;;;;;;4.57;4.18;;;27.70;41.90;;;;;;5033378;28;20219;-70
2023/06/10 08:21:02;;;;;;;4.50;4.20;;;27.80;41.80;;;;;;5034244;28;20195;-69
2023/06/10 08:23:28;;;;;;;4.22;3.83;;;27.80;41.60;;;;;;5034578;28;20188;-69
2023/06/10 08:25:55;;;;;;;3.90;3.60;;;27.80;41.60;;;;;;5033603;28;20215;-70
2023/06/10 08:28:23;;;;;;;4.18;3.88;;;27.80;41.50;;;;;;5034388;28;20229;-70
2023/06/10 08:30:51;;;;;;;4.00;3.70;;;27.90;41.50;;;;;;5034449;28;20267;-69
2023/06/10 08:33:18;;;;;;;4.10;3.78;;;27.90;41.50;;;;;;5033308;28;20199;-69
2023/06/10 08:35:44;;;;;;;4.05;3.75;;;27.90;41.40;;;;;;5033159;28;20191;-70
2023/06/10 08:38:12;;;;;;;4.15;3.85;;;27.90;41.30;;;;;;5034269;28;20190;-70
2023/06/10 08:40:39;;;;;;;4.40;4.00;;;27.90;41.30;;;;;;5033005;28;20230;-69
2023/06/10 08:43:07;;;;;;;4.30;4.00;;;28.00;41.50;;;;;;5034625;28;20215;-70
2023/06/10 08:45:37;;;;;;;4.30;4.00;;;28.00;41.30;;;;;;5033833;28;20226;-68
2023/06/10 08:48:06;;;;;;;4.18;3.88;;;28.00;41.30;;;;;;5033117;28;20295;-67
2023/06/10 08:50:35;;;;;;;4.25;3.95;;;27.90;41.20;;;;;;5032752;28;20732;-67
2023/06/10 08:53:02;;;;;;;4.13;3.80;;;28.00;41.30;;;;;;5032811;28;20277;-66
2023/06/10 08:55:31;;;;;;;4.20;3.90;;;28.00;41.20;;;;;;5032818;28;20290;-67
2023/06/10 08:57:58;;;;;;;4.10;3.80;;;28.00;41.20;;;;;;5032663;28;20200;-67
2023/06/10 09:00:26;;;;;;;4.00;3.70;;;27.90;41.30;;;;;;5032373;28;20227;-67
2023/06/10 09:02:55;;;;;;;4.45;4.15;;;27.80;41.40;;;;;;5032540;28;20211;-67
2023/06/10 09:05:22;;;;;;;4.18;3.88;;;27.90;41.70;;;;;;5033758;28;20203;-67
2023/06/10 09:07:50;;;;;;;3.95;3.65;;;27.90;41.50;;;;;;5032600;28;20206;-70
2023/06/10 09:10:17;;;;;;;4.28;3.88;;;27.90;41.50;;;;;;5032455;28;20792;-70
2023/06/10 09:12:44;;;;;;;3.88;3.58;;;27.90;41.40;;;;;;5033596;28;20195;-69
2023/06/10 09:15:12;;;;;;;4.18;3.88;;;27.90;41.30;;;;;;5032499;28;20199;-69
2023/06/10 09:17:40;;;;;;;4.00;3.60;;;27.90;41.40;;;;;;5032307;28;20195;-68
2023/06/10 09:20:09;;;;;;;4.40;4.00;;;27.80;41.40;;;;;;5033555;28;20218;-68
2023/06/10 09:22:36;;;;;;;3.90;3.60;;;27.80;41.50;;;;;;5033555;28;20213;-69
2023/06/10 09:25:05;;;;;;;4.05;3.75;;;27.70;41.70;;;;;;5032267;28;20290;-68
2023/06/10 09:27:32;;;;;;;3.80;3.55;;;27.60;42.00;;;;;;5033486;28;20258;-68
2023/06/10 09:29:59;;;;;;;4.60;4.20;;;27.50;42.10;;;;;;5033423;28;20214;-69
2023/06/10 09:32:26;;;;;;;4.32;4.03;;;27.60;42.00;;;;;;5032210;28;20692;-69
2023/06/10 09:34:53;;;;;;;4.13;3.83;;;27.60;41.90;;;;;;5033365;28;20662;-69
2023/06/10 09:37:25;;;;;;;4.78;4.38;;;27.60;41.80;;;;;;5032305;28;20278;-68
2023/06/10 09:40:13;;;;;;;4.45;4.10;;;27.60;41.70;;;;;;5032087;28;20598;-69
2023/06/10 09:42:40;;;;;;;3.97;3.67;;;27.70;41.70;;;;;;5026219;28;20205;-69
2023/06/10 09:45:08;;;;;;;4.55;4.25;;;27.80;41.60;;;;;;5032073;28;20199;-69
2023/06/10 09:47:35;;;;;;;4.00;3.70;;;27.80;41.60;;;;;;5032004;28;20592;-69
2023/06/10 09:50:03;;;;;;;4.35;4.03;;;27.80;41.40;;;;;;5031956;28;20219;-69
2023/06/10 09:52:31;;;;;;;3.90;3.60;;;27.80;41.40;;;;;;5033742;28;20676;-69
2023/06/10 09:55:00;;;;;;;4.57;4.28;;;27.80;41.50;;;;;;5032018;28;20579;-68
2023/06/10 09:57:32;;;;;;;3.97;3.67;;;27.70;41.70;;;;;;5033755;28;20187;-68
2023/06/10 09:59:59;;;;;;;4.18;3.88;;;27.60;41.90;;;;;;5033142;28;20693;-69
2023/06/10 10:02:26;;;;;;;3.90;3.60;;;27.50;42.10;;;;;;5032264;28;20749;-69
2023/06/10 10:04:53;;;;;;;4.43;4.13;;;27.40;42.10;;;;;;5033411;28;20562;-69
2023/06/10 10:07:20;;;;;;;3.75;3.45;;;27.50;42.20;;;;;;5032946;28;20203;-69
2023/06/10 10:09:48;;;;;;;4.10;3.70;;;27.40;42.10;;;;;;5031883;28;20226;-68
2023/06/10 10:12:16;;;;;;;3.95;3.65;;;27.50;42.20;;;;;;5034019;28;20203;-69
2023/06/10 10:14:46;;;;;;;3.90;3.60;;;27.50;42.10;;;;;;5036950;28;20275;-68
2023/06/10 10:17:13;;;;;;;4.15;3.80;;;27.50;42.20;;;;;;5035654;28;20320;-69
2023/06/10 10:19:45;;;;;;;3.92;3.63;;;27.50;42.10;;;;;;5036831;28;20720;-68
2023/06/10 10:22:15;;;;;;;4.18;3.88;;;27.50;42.10;;;;;;5035624;28;20198;-69
2023/06/10 10:24:49;;;;;;;3.60;3.38;;;27.50;42.10;;;;;;5036708;28;20179;-69
2023/06/10 10:27:19;;;;;;;4.28;3.97;;;27.50;42.00;;;;;;5036949;28;20195;-69
2023/06/10 10:29:48;;;;;;;4.43;4.03;;;27.50;42.10;;;;;;5036618;28;20230;-69
2023/06/10 10:32:16;;;;;;;4.03;3.72;;;27.50;42.10;;;;;;5035565;28;20253;-68
2023/06/10 10:34:45;;;;;;;4.43;4.03;;;27.50;42.20;;;;;;5035372;28;20206;-69
2023/06/10 10:37:12;;;;;;;4.40;4.10;;;27.50;42.20;;;;;;5036600;28;20306;-68
2023/06/10 10:39:39;;;;;;;4.07;3.78;;;27.40;42.10;;;;;;5036390;28;20211;-69
2023/06/10 10:42:09;;;;;;;4.10;3.80;;;27.40;42.10;;;;;;5035248;28;20198;-68
2023/06/10 10:44:38;;;;;;;4.38;4.07;;;27.30;42.30;;;;;;5035609;28;20214;-69
2023/06/10 10:47:06;;;;;;;4.15;3.75;;;27.30;42.40;;;;;;5036205;28;20708;-68
2023/06/10 10:49:33;;;;;;;4.20;3.90;;;27.30;42.40;;;;;;5035146;28;20226;-69
2023/06/10 10:52:01;;;;;;;4.07;3.78;;;27.30;42.50;;;;;;5036476;28;20192;-69
2023/06/10 10:54:32;;;;;;;4.10;3.80;;;27.20;42.50;;;;;;5035098;28;20204;-68
2023/06/10 10:57:16;;;;;;;4.20;3.90;;;27.20;42.50;;;;;;5034974;28;20290;-68
2023/06/10 10:59:56;;;;;;;4.30;4.00;;;27.20;42.60;;;;;;5036438;28;20208;-69
2023/06/10 11:02:38;;;;;;;4.07;3.78;;;27.20;42.60;;;;;;5034979;28;20187;-69
2023/06/10 11:05:06;;;;;;;4.20;3.90;;;27.20;42.70;;;;;;5034741;28;20196;-68
2023/06/10 11:07:34;;;;;;;4.13;3.83;;;27.20;42.80;;;;;;5036150;28;20207;-68
2023/06/10 11:10:03;;;;;;;4.03;3.72;;;27.20;43.00;;;;;;5036000;28;20208;-69
2023/06/10 11:12:52;;;;;;;4.00;3.63;;;27.10;43.10;;;;;;5034736;28;20199;-69
2023/06/10 11:15:21;;;;;;;4.50;4.20;;;27.00;43.10;;;;;;5035844;28;20184;-68
2023/06/10 11:18:07;;;;;;;4.40;4.10;;;27.00;43.40;;;;;;5035716;28;20602;-69
2023/06/10 11:20:52;;;;;;;3.90;3.60;;;27.00;43.50;;;;;;5036390;28;20207;-69
2023/06/10 11:23:33;;;;;;;4.03;3.72;;;26.90;43.40;;;;;;5034282;28;20257;-68
2023/06/10 11:26:14;;;;;;;4.05;3.75;;;26.90;43.50;;;;;;5034534;28;20202;-68
2023/06/10 11:28:41;;;;;;;4.10;3.80;;;26.90;43.50;;;;;;5035572;28;20218;-69
2023/06/10 11:31:10;;;;;;;4.10;3.80;;;26.90;43.60;;;;;;5036043;28;20688;-68
2023/06/10 11:33:38;;;;;;;4.13;3.83;;;26.90;43.60;;;;;;5034484;28;20207;-68
2023/06/10 11:36:07;;;;;;;3.95;3.65;;;26.80;43.50;;;;;;5035557;28;20198;-69
2023/06/10 11:38:35;;;;;;;3.85;3.55;;;26.80;43.60;;;;;;5034377;28;20219;-69
2023/06/10 11:41:02;;;;;;;4.03;3.78;;;26.80;43.90;;;;;;5034335;28;20192;-68
2023/06/10 11:43:29;;;;;;;3.88;3.58;;;26.80;43.60;;;;;;5034324;28;20555;-69
2023/06/10 11:45:57;;;;;;;4.45;4.15;;;26.80;43.60;;;;;;5053454;22;20227;-82
2023/06/10 11:48:28;;;;;;;4.50;3.92;;;26.80;43.60;;;;;;5040626;28;20786;-83
2023/06/10 11:50:55;;;;;;;4.95;4.55;;;26.80;43.60;;;;;;5040175;28;20314;-83
2023/06/10 11:53:22;;;;;;;4.80;4.35;;;26.90;43.80;;;;;;5024612;28;20199;-83
2023/06/10 11:55:51;;;;;;;4.10;3.80;;;26.90;44.00;;;;;;5041546;28;20222;-83
2023/06/10 11:58:19;;;;;;;4.63;4.22;;;26.80;43.70;;;;;;5040932;28;20192;-83
2023/06/10 12:00:47;;;;;;;4.53;4.05;;;26.80;44.00;;;;;;5042109;28;20220;-83
2023/06/10 12:03:15;;;;;;;4.72;4.32;;;26.80;44.00;;;;;;5041488;28;20200;-83
2023/06/10 12:05:54;;;;;;;4.43;4.13;;;26.80;44.00;;;;;;5052460;28;20200;-82
2023/06/10 12:08:22;;;;;;;4.40;4.03;;;26.80;44.00;;;;;;5057039;28;20233;-83
2023/06/10 12:10:49;;;;;;;4.97;4.47;;;26.80;44.00;;;;;;5056952;28;20220;-83
2023/06/10 12:13:17;;;;;;;4.95;4.45;;;26.80;44.00;;;;;;5056376;28;20203;-83
2023/06/10 12:15:45;;;;;;;4.30;4.00;;;26.90;44.10;;;;;;5054536;28;20183;-83
2023/06/10 12:18:17;;;;;;;5.55;4.10;;;26.90;44.00;;;;;;5056549;28;20202;-83
2023/06/10 12:20:45;;;;;;;4.43;4.03;;;26.90;42.40;;;;;;5024278;28;20212;-83
2023/06/10 12:23:13;;;;;;;4.32;4.03;;;26.90;42.70;;;;;;5035877;28;20199;-83
2023/06/10 12:25:41;;;;;;;4.72;4.38;;;26.90;42.90;;;;;;5034851;28;20215;-83
2023/06/10 12:28:11;;;;;;;4.35;3.95;;;26.90;43.30;;;;;;5035066;28;20605;-82
2023/06/10 12:30:38;;;;;;;5.30;4.28;;;26.80;43.70;;;;;;5035281;28;20320;-82
2023/06/10 12:33:06;;;;;;;4.35;4.05;;;26.90;43.90;;;;;;5036126;28;20200;-82
2023/06/10 12:35:32;;;;;;;4.70;4.30;;;26.80;43.90;;;;;;5034646;28;20243;-82
2023/06/10 12:38:03;;;;;;;4.57;4.20;;;26.90;43.90;;;;;;5037062;28;20195;-83
2023/06/10 12:40:31;;;;;;;4.35;3.95;;;26.90;43.70;;;;;;5036648;28;20196;-83
2023/06/10 12:42:58;;;;;;;4.47;4.07;;;26.80;43.80;;;;;;5035693;28;20203;-83
2023/06/10 12:45:29;;;;;;;4.47;4.07;;;26.80;43.60;;;;;;5045638;28;20210;-82
2023/06/10 12:48:05;;;;;;;4.13;3.70;;;26.80;44.20;;;;;;5055064;28;20222;-82
2023/06/10 12:50:32;;;;;;;4.50;4.15;;;26.80;44.20;;;;;;5053881;28;20195;-82
2023/06/10 12:53:01;;;;;;;5.63;4.50;;;26.80;44.10;;;;;;5049321;28;20210;-83
2023/06/10 12:55:29;;;;;;;4.60;4.25;;;26.80;44.80;;;;;;5042712;28;20222;-83